Time;durP1;ratioP1;P1;durP2;ratioP2;P2;SDS_P1;SDS_P2;PMS_P1;PMS_P2;Temp;Humidity;BMP_temperature;BMP_pressure;BME280_temperature;BME280_humidity;BME280_pressure;Samples;Min_cycle;Max_cycle;Signal;HPM_P1;HPM_P2
2021/07/10 00:01:37;;;;;;;4.80;2.25;;;;;;;;;;6303386;28;20049;-75
2021/07/10 00:04:39;;;;;;;2.40;1.30;;;;;;;;;;6305475;28;20045;-76
2021/07/10 00:07:43;;;;;;;3.13;1.35;;;;;;;;;;6286518;28;20060;-73
2021/07/10 00:10:44;;;;;;;2.92;1.73;;;;;;;;;;6302112;28;20044;-73
2021/07/10 00:13:48;;;;;;;5.53;1.95;;;;;;;;;;6307790;28;20098;-77
2021/07/10 00:16:50;;;;;;;3.70;1.58;;;;;;;;;;6305135;28;20041;-73
2021/07/10 00:19:52;;;;;;;2.20;1.60;;;;;;;;;;6307939;28;20415;-74
2021/07/10 00:22:56;;;;;;;2.78;1.52;;;;;;;;;;6305589;28;20059;-74
2021/07/10 00:25:57;;;;;;;;;;;;;;;;;;6304277;28;20053;-73
2021/07/10 00:28:59;;;;;;;5.10;1.92;;;;;;;;;;6304486;28;19947;-73
2021/07/10 00:32:01;;;;;;;3.33;1.80;;;;;;;;;;6305066;28;20048;-75
2021/07/10 00:35:03;;;;;;;4.38;1.90;;;;;;;;;;6310004;28;20069;-74
2021/07/10 00:38:06;;;;;;;2.53;1.70;;;;;;;;;;6305263;28;20496;-74
2021/07/10 00:41:08;;;;;;;4.53;1.73;;;;;;;;;;6308348;28;20054;-73
2021/07/10 00:44:10;;;;;;;5.97;1.48;;;;;;;;;;6306217;28;20060;-74
2021/07/10 00:47:12;;;;;;;4.95;1.50;;;;;;;;;;6302565;28;20045;-73
2021/07/10 00:50:16;;;;;;;3.80;1.55;;;;;;;;;;6308902;28;20047;-79
2021/07/10 00:53:20;;;;;;;3.05;1.45;;;;;;;;;;6306010;28;20064;-73
2021/07/10 00:56:28;;;;;;;;;;;;;;;;;;6306290;28;20081;-73
2021/07/10 00:59:30;;;;;;;5.68;1.70;;;;;;;;;;6304432;28;19940;-77
2021/07/10 01:02:32;;;;;;;8.93;1.90;;;;;;;;;;6289648;28;20109;-74
2021/07/10 01:06:04;;;;;;;20.48;4.47;;;;;;;;;;6304947;28;20052;-73
2021/07/10 01:09:19;;;;;;;12.23;2.63;;;;;;;;;;6307550;28;20090;-73
2021/07/10 01:12:21;;;;;;;4.43;1.50;;;;;;;;;;6306324;28;20062;-73
2021/07/10 01:15:25;;;;;;;2.95;1.30;;;;;;;;;;6280455;28;20050;-78
2021/07/10 01:18:27;;;;;;;2.70;1.35;;;;;;;;;;6313314;28;20036;-73
2021/07/10 01:21:30;;;;;;;4.65;1.17;;;;;;;;;;6305793;28;20082;-75
2021/07/10 01:24:32;;;;;;;;;;;;;;;;;;6310640;28;20040;-73
2021/07/10 01:27:34;;;;;;;9.75;1.90;;;;;;;;;;6308489;28;19921;-78
2021/07/10 01:30:37;;;;;;;2.40;1.38;;;;;;;;;;6306246;28;20037;-78
2021/07/10 01:33:39;;;;;;;10.90;3.30;;;;;;;;;;6309054;28;20047;-77
2021/07/10 01:36:46;;;;;;;5.35;1.92;;;;;;;;;;6305452;28;20052;-76
2021/07/10 01:39:48;;;;;;;6.35;2.00;;;;;;;;;;6312793;28;20090;-73
2021/07/10 01:42:50;;;;;;;5.20;1.40;;;;;;;;;;6282341;28;20045;-77
2021/07/10 01:45:53;;;;;;;3.55;1.50;;;;;;;;;;6304553;28;20056;-76
2021/07/10 01:48:54;;;;;;;6.20;2.10;;;;;;;;;;6306433;28;20083;-73
2021/07/10 01:51:58;;;;;;;6.00;2.15;;;;;;;;;;6304029;28;20451;-74
2021/07/10 01:54:59;;;;;;;5.13;1.98;;;;;;;;;;6310230;28;20058;-76
2021/07/10 01:58:08;;;;;;;8.02;2.38;;;;;;;;;;6257236;28;20128;-72
2021/07/10 02:01:09;;;;;;;6.38;2.53;;;;;;;;;;6255976;28;20060;-75
2021/07/10 02:04:15;;;;;;;4.88;2.20;;;;;;;;;;6257034;28;20042;-74
2021/07/10 02:07:20;;;;;;;5.43;2.38;;;;;;;;;;6255723;28;20041;-76
2021/07/10 02:10:36;;;;;;;2.60;1.92;;;;;;;;;;6255882;28;20051;-78
2021/07/10 02:13:38;;;;;;;6.75;2.38;;;;;;;;;;6269432;28;20057;-73
2021/07/10 02:16:39;;;;;;;4.68;1.90;;;;;;;;;;6256760;28;20045;-77
2021/07/10 02:23:35;;;;;;;5.43;2.17;;;;;;;;;;6258218;28;20474;-77
2021/07/10 02:26:38;;;;;;;3.65;2.08;;;;;;;;;;6257107;28;20140;-73
2021/07/10 02:29:40;;;;;;;6.32;2.40;;;;;;;;;;6262980;28;20050;-75
2021/07/10 02:32:42;;;;;;;4.50;2.00;;;;;;;;;;6250507;28;20047;-74
2021/07/10 02:35:43;;;;;;;2.67;1.80;;;;;;;;;;6257765;28;20497;-73
2021/07/10 02:38:47;;;;;;;4.03;1.80;;;;;;;;;;6250304;28;20052;-76
2021/07/10 02:41:49;;;;;;;4.90;1.95;;;;;;;;;;6254447;28;20136;-72
2021/07/10 02:44:51;;;;;;;4.47;2.25;;;;;;;;;;6257188;28;20053;-73
2021/07/10 02:47:52;;;;;;;3.40;1.80;;;;;;;;;;6249700;28;20042;-73
2021/07/10 02:50:54;;;;;;;2.80;1.65;;;;;;;;;;6256289;28;20124;-71
2021/07/10 02:57:40;;;;;;;3.45;2.17;;;;;;;;;;6257637;28;20044;-74
2021/07/10 03:00:42;;;;;;;4.13;2.05;;;;;;;;;;6268738;28;20135;-78
2021/07/10 03:04:12;;;;;;;4.78;2.45;;;;;;;;;;6298019;28;20347;-73
2021/07/10 03:07:14;;;;;;;3.47;1.80;;;;;;;;;;6289116;28;20048;-73
2021/07/10 03:10:19;;;;;;;3.17;1.63;;;;;;;;;;6298861;28;20060;-78
2021/07/10 03:16:43;;;;;;;2.55;1.60;;;;;;;;;;6189909;28;20064;-73
2021/07/10 03:19:45;;;;;;;6.40;1.42;;;;;;;;;;6263915;28;20057;-72
2021/07/10 03:22:57;;;;;;;4.75;1.80;;;;;;;;;;6298418;28;20156;-72
2021/07/10 03:26:10;;;;;;;3.47;1.70;;;;;;;;;;6284109;28;20105;-73
2021/07/10 03:29:12;;;;;;;4.40;1.77;;;;;;;;;;6296392;28;20127;-74
2021/07/10 03:32:14;;;;;;;2.95;1.50;;;;;;;;;;6296346;28;20058;-75
2021/07/10 03:35:36;;;;;;;3.15;1.58;;;;;;;;;;6296177;28;20076;-75
2021/07/10 03:39:26;;;;;;;5.32;1.50;;;;;;;;;;6296951;28;20052;-75
2021/07/10 03:42:29;;;;;;;5.50;1.58;;;;;;;;;;6294793;28;20411;-74
2021/07/10 03:45:31;;;;;;;4.68;1.80;;;;;;;;;;6301488;28;20049;-76
2021/07/10 03:48:34;;;;;;;4.35;1.25;;;;;;;;;;6297659;28;20040;-74
2021/07/10 03:51:39;;;;;;;4.40;1.60;;;;;;;;;;6294102;28;20114;-74
2021/07/10 03:54:41;;;;;;;3.75;1.73;;;;;;;;;;6296782;28;20057;-73
2021/07/10 03:58:32;;;;;;;3.40;1.60;;;;;;;;;;6296623;28;20036;-73
2021/07/10 04:01:43;;;;;;;2.33;1.40;;;;;;;;;;6284302;28;20431;-76
2021/07/10 04:04:45;;;;;;;4.85;2.33;;;;;;;;;;6301298;28;20049;-75
2021/07/10 04:07:47;;;;;;;6.70;2.00;;;;;;;;;;6299215;28;20055;-74
2021/07/10 04:11:17;;;;;;;3.40;1.60;;;;;;;;;;6296151;28;20066;-78
2021/07/10 04:14:20;;;;;;;3.67;1.88;;;;;;;;;;6304845;28;20045;-73
2021/07/10 04:17:24;;;;;;;5.68;1.75;;;;;;;;;;6290297;28;20104;-74
2021/07/10 04:20:25;;;;;;;;;;;;;;;;;;6296284;28;20208;-76
2021/07/10 04:23:28;;;;;;;4.88;2.40;;;;;;;;;;6282694;28;19982;-75
2021/07/10 04:26:30;;;;;;;5.68;2.22;;;;;;;;;;6292742;28;20048;-74
2021/07/10 04:30:10;;;;;;;3.72;2.05;;;;;;;;;;6299152;28;20047;-73
2021/07/10 04:33:14;;;;;;;4.88;2.53;;;;;;;;;;6259962;28;20044;-74
2021/07/10 04:39:53;;;;;;;4.43;2.10;;;;;;;;;;6263798;28;20171;-73
2021/07/10 04:42:58;;;;;;;5.75;2.33;;;;;;;;;;6303243;28;20044;-73
2021/07/10 04:46:02;;;;;;;5.13;2.08;;;;;;;;;;6313358;28;20052;-73
2021/07/10 04:49:39;;;;;;;5.65;2.03;;;;;;;;;;6305409;28;20067;-73
2021/07/10 04:53:23;;;;;;;3.42;1.95;;;;;;;;;;6276538;28;20170;-75
2021/07/10 04:56:40;;;;;;;4.43;1.90;;;;;;;;;;6259962;28;20112;-74
2021/07/10 04:59:42;;;;;;;7.30;2.03;;;;;;;;;;6313439;28;20049;-73
2021/07/10 05:02:45;;;;;;;4.07;1.50;;;;;;;;;;6298307;28;20055;-73
2021/07/10 05:05:47;;;;;;;4.18;2.20;;;;;;;;;;6305713;28;20080;-73
2021/07/10 05:08:49;;;;;;;4.47;2.17;;;;;;;;;;6303142;28;20048;-74
2021/07/10 05:11:51;;;;;;;10.60;2.40;;;;;;;;;;6295748;28;20040;-73
2021/07/10 05:14:53;;;;;;;3.25;2.10;;;;;;;;;;6304164;28;20052;-74
2021/07/10 05:17:56;;;;;;;4.80;2.25;;;;;;;;;;6299690;28;20044;-75
2021/07/10 05:20:59;;;;;;;5.75;2.38;;;;;;;;;;6300748;28;20106;-75
2021/07/10 05:27:16;;;;;;;5.30;2.03;;;;;;;;;;6297251;28;20044;-75
2021/07/10 05:30:19;;;;;;;4.30;2.08;;;;;;;;;;6301805;28;20073;-76
2021/07/10 05:33:22;;;;;;;3.92;1.90;;;;;;;;;;6302228;28;20051;-76
2021/07/10 05:36:24;;;;;;;5.50;2.72;;;;;;;;;;6298272;28;20057;-73
2021/07/10 05:39:26;;;;;;;10.10;3.13;;;;;;;;;;6304152;28;20094;-75
2021/07/10 05:42:30;;;;;;;5.50;2.42;;;;;;;;;;6304848;28;20052;-76
2021/07/10 05:45:54;;;;;;;4.00;2.20;;;;;;;;;;6292026;28;20064;-76
2021/07/10 05:48:57;;;;;;;3.70;2.20;;;;;;;;;;6300374;28;20049;-74
2021/07/10 05:52:06;;;;;;;6.35;2.10;;;;;;;;;;6300209;28;20061;-77
2021/07/10 05:55:12;;;;;;;7.35;1.92;;;;;;;;;;6303619;28;20130;-75
2021/07/10 05:58:23;;;;;;;3.58;2.30;;;;;;;;;;6296204;28;20102;-75
2021/07/10 06:01:25;;;;;;;5.80;2.15;;;;;;;;;;6293575;28;20057;-74
2021/07/10 06:04:28;;;;;;;4.38;2.55;;;;;;;;;;6301611;28;20090;-74
2021/07/10 06:07:30;;;;;;;3.60;1.92;;;;;;;;;;6275984;28;20544;-75
2021/07/10 06:10:32;;;;;;;4.28;2.05;;;;;;;;;;6285352;28;20174;-76
2021/07/10 06:13:34;;;;;;;4.93;1.83;;;;;;;;;;6295890;28;20055;-77
2021/07/10 06:16:36;;;;;;;6.45;2.15;;;;;;;;;;6288387;28;20052;-74
2021/07/10 06:19:39;;;;;;;5.00;2.42;;;;;;;;;;6300224;28;20049;-75
2021/07/10 06:22:42;;;;;;;1.90;1.15;;;;;;;;;;6294846;28;20084;-75
2021/07/10 06:25:44;;;;;;;2.28;1.60;;;;;;;;;;6298442;28;20040;-76
2021/07/10 06:28:47;;;;;;;2.25;1.58;;;;;;;;;;6308399;28;20098;-75
2021/07/10 06:31:49;;;;;;;;;;;;;;;;;;6307100;28;20055;-75
2021/07/10 06:38:33;;;;;;;2.33;1.30;;;;;;;;;;6300643;28;20044;-75
2021/07/10 06:41:36;;;;;;;4.45;1.38;;;;;;;;;;6303434;28;20068;-75
2021/07/10 06:44:38;;;;;;;;;;;;;;;;;;6308671;28;20102;-72
2021/07/10 06:47:40;;;;;;;2.47;1.50;;;;;;;;;;6300421;28;19974;-76
2021/07/10 06:50:43;;;;;;;3.08;1.40;;;;;;;;;;6287198;28;20052;-74
2021/07/10 06:53:55;;;;;;;;;;;;;;;;;;;;;
2021/07/10 06:56:57;;;;;;;3.08;1.20;;;;;;;;;;6284084;28;20064;-73
2021/07/10 06:59:59;;;;;;;4.07;1.48;;;;;;;;;;6307639;28;20041;-72
2021/07/10 07:03:24;;;;;;;2.88;1.60;;;;;;;;;;6283554;28;20484;-77
2021/07/10 07:06:27;;;;;;;4.57;1.50;;;;;;;;;;6300334;28;20100;-75
2021/07/10 07:09:28;;;;;;;2.95;1.70;;;;;;;;;;6305443;28;20053;-73
2021/07/10 07:12:30;;;;;;;3.60;1.70;;;;;;;;;;6299609;28;20044;-74
2021/07/10 07:15:32;;;;;;;3.08;1.55;;;;;;;;;;6298025;28;20040;-77
2021/07/10 07:18:34;;;;;;;4.97;1.73;;;;;;;;;;6299370;28;20044;-72
2021/07/10 07:21:37;;;;;;;3.63;1.88;;;;;;;;;;6303216;28;20045;-73
2021/07/10 07:24:39;;;;;;;4.43;1.95;;;;;;;;;;6306820;28;20067;-71
2021/07/10 07:27:41;;;;;;;3.47;2.28;;;;;;;;;;6282066;28;20048;-73
2021/07/10 07:30:43;;;;;;;5.15;1.60;;;;;;;;;;6298506;28;21035;-79
2021/07/10 07:33:46;;;;;;;3.08;1.77;;;;;;;;;;6309539;28;20052;-71
2021/07/10 07:36:49;;;;;;;;;;;;;;;;;;6305271;28;20055;-71
2021/07/10 07:39:51;;;;;;;3.77;1.80;;;;;;;;;;6312067;28;19982;-70
2021/07/10 07:42:55;;;;;;;3.53;1.60;;;;;;;;;;6308831;28;20059;-74
2021/07/10 07:45:57;;;;;;;3.03;1.65;;;;;;;;;;6313406;28;20081;-71
2021/07/10 07:48:59;;;;;;;7.18;1.77;;;;;;;;;;6304464;28;20045;-71
2021/07/10 07:52:02;;;;;;;1.73;1.45;;;;;;;;;;6303653;28;20072;-74
2021/07/10 07:55:06;;;;;;;3.67;1.90;;;;;;;;;;6307583;28;20059;-79
2021/07/10 07:58:09;;;;;;;2.50;1.42;;;;;;;;;;6302185;28;20102;-72
2021/07/10 08:01:11;;;;;;;4.22;1.65;;;;;;;;;;6303579;28;20113;-74
2021/07/10 08:04:13;;;;;;;3.33;1.52;;;;;;;;;;6309206;28;20056;-71
2021/07/10 08:07:19;;;;;;;3.10;1.63;;;;;;;;;;6304273;28;20073;-72
2021/07/10 08:10:22;;;;;;;4.72;1.70;;;;;;;;;;6303969;28;20535;-76
2021/07/10 08:13:24;;;;;;;3.65;1.77;;;;;;;;;;6308868;28;20067;-73
2021/07/10 08:16:26;;;;;;;2.93;1.93;;;;;;;;;;6307080;28;20075;-71
2021/07/10 08:19:27;;;;;;;2.20;1.33;;;;;;;;;;6311143;28;20064;-71
2021/07/10 08:22:31;;;;;;;1.40;1.20;;;;;;;;;;6309510;28;20036;-72
2021/07/10 08:25:32;;;;;;;2.08;1.25;;;;;;;;;;6283618;28;20042;-77
2021/07/10 08:28:34;;;;;;;2.85;1.40;;;;;;;;;;6320421;28;20075;-72
2021/07/10 08:31:36;;;;;;;2.42;1.38;;;;;;;;;;6312994;28;20074;-73
2021/07/10 08:34:38;;;;;;;2.55;1.52;;;;;;;;;;6316631;28;20045;-76
2021/07/10 08:37:41;;;;;;;2.65;1.05;;;;;;;;;;6317481;28;20078;-73
2021/07/10 08:40:43;;;;;;;3.25;1.23;;;;;;;;;;6304517;28;20048;-72
2021/07/10 08:43:45;;;;;;;2.22;1.40;;;;;;;;;;6313279;28;20049;-71
2021/07/10 08:46:47;;;;;;;2.38;1.33;;;;;;;;;;6306611;28;20048;-73
2021/07/10 08:49:49;;;;;;;;;;;;;;;;;;6314408;28;20417;-72
2021/07/10 08:52:55;;;;;;;4.93;1.67;;;;;;;;;;6311328;28;19929;-74
2021/07/10 08:55:56;;;;;;;2.53;1.80;;;;;;;;;;6309380;28;20178;-73
2021/07/10 08:58:59;;;;;;;5.30;1.92;;;;;;;;;;6308560;28;20095;-72
2021/07/10 09:02:00;;;;;;;;;;;;;;;;;;6298069;28;20404;-73
2021/07/10 09:05:02;;;;;;;4.65;2.70;;;;;;;;;;6295918;28;20264;-79
2021/07/10 09:08:23;;;;;;;4.53;1.90;;;;;;;;;;6305234;28;20523;-74
2021/07/10 09:11:25;;;;;;;4.00;1.85;;;;;;;;;;6302532;28;20048;-74
2021/07/10 09:14:30;;;;;;;6.05;2.30;;;;;;;;;;6305839;28;20086;-73
2021/07/10 09:17:32;;;;;;;3.38;1.80;;;;;;;;;;6260776;28;20060;-69
2021/07/10 09:20:33;;;;;;;7.30;2.00;;;;;;;;;;6271905;28;20076;-66
2021/07/10 09:23:39;;;;;;;5.20;2.28;;;;;;;;;;6302671;28;20044;-67
2021/07/10 09:26:43;;;;;;;4.78;1.90;;;;;;;;;;6297502;28;20048;-67
2021/07/10 09:29:46;;;;;;;3.88;1.73;;;;;;;;;;6299543;28;20057;-67
2021/07/10 09:32:48;;;;;;;2.67;1.90;;;;;;;;;;6295931;28;20037;-66
2021/07/10 09:35:51;;;;;;;28.50;3.47;;;;;;;;;;6295634;28;20125;-66
2021/07/10 09:38:54;;;;;;;32.15;3.38;;;;;;;;;;6300525;28;20465;-65
2021/07/10 09:41:57;;;;;;;3.13;1.67;;;;;;;;;;6295405;28;20130;-69
2021/07/10 09:44:59;;;;;;;7.00;1.83;;;;;;;;;;6293336;28;20650;-68
2021/07/10 09:48:10;;;;;;;7.53;3.92;;;;;;;;;;6288169;28;20112;-66
2021/07/10 09:51:20;;;;;;;14.57;4.25;;;;;;;;;;6293461;28;20052;-65
2021/07/10 09:54:28;;;;;;;7.35;4.82;;;;;;;;;;6292402;28;20105;-70
2021/07/10 09:57:31;;;;;;;11.48;10.40;;;;;;;;;;6288297;28;20544;-70
2021/07/10 10:00:33;;;;;;;3.90;3.08;;;;;;;;;;6281598;28;20070;-71
2021/07/10 10:03:34;;;;;;;3.42;1.42;;;;;;;;;;6282538;28;20073;-69
2021/07/10 10:06:36;;;;;;;7.73;4.93;;;;;;;;;;6277726;28;20052;-70
2021/07/10 10:09:39;;;;;;;8.48;6.45;;;;;;;;;;6288545;28;20544;-70
2021/07/10 10:12:41;;;;;;;8.35;7.35;;;;;;;;;;6278845;28;20595;-70
2021/07/10 10:15:44;;;;;;;3.67;1.50;;;;;;;;;;6279786;28;20051;-68
2021/07/10 10:18:47;;;;;;;5.15;4.15;;;;;;;;;;6277624;28;20622;-69
2021/07/10 10:21:51;;;;;;;3.45;2.35;;;;;;;;;;6273961;28;20055;-69
2021/07/10 10:24:54;;;;;;;1.70;1.60;;;;;;;;;;6280212;28;20134;-70
2021/07/10 10:27:56;;;;;;;5.90;1.40;;;;;;;;;;6275923;28;20085;-69
2021/07/10 10:30:58;;;;;;;1.02;0.80;;;;;;;;;;6273210;28;20598;-68
2021/07/10 10:34:00;;;;;;;44.10;3.40;;;;;;;;;;6281425;28;20045;-71
2021/07/10 10:37:01;;;;;;;;;;;;;;;;;;6277344;28;20086;-70
2021/07/10 10:40:06;;;;;;;8.87;2.27;;;;;;;;;;6284603;28;19924;-69
2021/07/10 10:43:09;;;;;;;2.85;1.73;;;;;;;;;;6275426;28;20052;-69
2021/07/10 10:46:14;;;;;;;4.03;1.40;;;;;;;;;;6274050;28;20107;-68
2021/07/10 10:49:37;;;;;;;3.38;2.97;;;;;;;;;;6281455;28;20770;-72
2021/07/10 10:52:43;;;;;;;5.35;2.95;;;;;;;;;;6276952;28;20040;-73
2021/07/10 10:55:46;;;;;;;5.68;2.08;;;;;;;;;;6279457;28;20053;-73
2021/07/10 10:58:48;;;;;;;4.65;2.15;;;;;;;;;;6283796;28;20544;-71
2021/07/10 11:01:49;;;;;;;11.23;6.20;;;;;;;;;;6276877;28;20097;-71
2021/07/10 11:05:00;;;;;;;;;;;;;;;;;;6281327;28;20056;-73
2021/07/10 11:08:31;;;;;;;410.08;370.70;;;;;;;;;;6277633;28;19931;-72
2021/07/10 11:11:39;;;;;;;54.38;49.00;;;;;;;;;;6248845;28;20395;-74
2021/07/10 11:14:40;;;;;;;9.27;7.65;;;;;;;;;;6280058;28;20041;-73
2021/07/10 11:17:42;;;;;;;8.75;7.90;;;;;;;;;;6262426;28;20044;-73
2021/07/10 11:20:44;;;;;;;14.45;12.40;;;;;;;;;;6264183;28;20090;-72
2021/07/10 11:23:46;;;;;;;2.53;1.58;;;;;;;;;;6278817;28;20681;-73
2021/07/10 11:27:21;;;;;;;14.07;11.68;;;;;;;;;;6274383;28;20116;-72
2021/07/10 11:30:25;;;;;;;12.10;10.90;;;;;;;;;;6279951;28;20488;-71
2021/07/10 11:33:55;;;;;;;11.52;7.30;;;;;;;;;;6276497;28;20089;-71
2021/07/10 11:36:59;;;;;;;7.47;6.33;;;;;;;;;;6276128;28;20548;-70
2021/07/10 11:40:02;;;;;;;7.70;3.50;;;;;;;;;;6285129;28;20566;-70
2021/07/10 11:43:07;;;;;;;1.95;1.30;;;;;;;;;;6276808;28;20186;-72
2021/07/10 11:46:10;;;;;;;11.35;9.23;;;;;;;;;;6272496;28;20071;-72
2021/07/10 11:49:39;;;;;;;1.45;0.90;;;;;;;;;;6276792;28;20095;-71
2021/07/10 11:52:41;;;;;;;1.00;0.90;;;;;;;;;;6271726;28;20052;-71
2021/07/10 11:55:45;;;;;;;1.13;0.90;;;;;;;;;;6275763;28;20424;-72
2021/07/10 11:58:46;;;;;;;1.45;1.00;;;;;;;;;;6283003;28;20056;-72
2021/07/10 12:01:49;;;;;;;2.20;0.90;;;;;;;;;;6271767;28;20123;-74
2021/07/10 12:05:00;;;;;;;4.07;1.48;;;;;;;;;;6275528;28;20044;-74
2021/07/10 12:08:04;;;;;;;2.38;1.00;;;;;;;;;;6276255;28;20131;-72
2021/07/10 12:11:05;;;;;;;2.72;0.90;;;;;;;;;;6269464;28;20056;-72
2021/07/10 12:14:08;;;;;;;1.88;1.10;;;;;;;;;;6282625;28;20136;-72
2021/07/10 12:17:11;;;;;;;1.20;0.82;;;;;;;;;;6274927;28;20045;-71
2021/07/10 12:20:14;;;;;;;1.70;0.93;;;;;;;;;;6278304;28;20052;-71
2021/07/10 12:23:19;;;;;;;3.17;1.27;;;;;;;;;;6281894;28;20135;-70
2021/07/10 12:26:25;;;;;;;1.05;0.80;;;;;;;;;;6278851;28;20528;-71
2021/07/10 12:29:26;;;;;;;1.25;0.90;;;;;;;;;;6277155;28;20111;-72
2021/07/10 12:32:29;;;;;;;1.17;0.82;;;;;;;;;;6273049;28;20048;-70
2021/07/10 12:35:31;;;;;;;1.35;1.20;;;;;;;;;;6280251;28;20492;-71
2021/07/10 12:38:33;;;;;;;2.50;1.27;;;;;;;;;;6278400;28;20047;-70
2021/07/10 12:41:37;;;;;;;1.52;0.95;;;;;;;;;;6278097;28;20091;-71
2021/07/10 12:44:40;;;;;;;1.13;0.93;;;;;;;;;;6282518;28;20100;-70
2021/07/10 12:47:43;;;;;;;1.20;0.85;;;;;;;;;;6273827;28;20502;-70
2021/07/10 12:50:45;;;;;;;3.78;1.05;;;;;;;;;;6271713;28;20076;-70
2021/07/10 12:53:47;;;;;;;1.42;1.10;;;;;;;;;;6274298;28;20567;-71
2021/07/10 12:56:48;;;;;;;2.35;0.88;;;;;;;;;;6271339;28;20072;-70
2021/07/10 12:59:51;;;;;;;2.38;1.02;;;;;;;;;;6283039;28;20037;-72
2021/07/10 13:02:57;;;;;;;1.23;0.90;;;;;;;;;;6272247;28;20045;-71
2021/07/10 13:06:00;;;;;;;1.20;1.08;;;;;;;;;;6283637;28;20052;-71
2021/07/10 13:09:02;;;;;;;3.25;1.15;;;;;;;;;;6281023;28;20047;-72
2021/07/10 13:12:04;;;;;;;2.83;0.93;;;;;;;;;;6279669;28;20052;-73
2021/07/10 13:15:07;;;;;;;2.30;1.10;;;;;;;;;;6279278;28;20051;-74
2021/07/10 13:18:12;;;;;;;2.00;0.82;;;;;;;;;;6276722;28;20119;-75
2021/07/10 13:21:20;;;;;;;2.55;1.00;;;;;;;;;;6278017;28;20480;-74
2021/07/10 13:24:21;;;;;;;10.57;1.90;;;;;;;;;;6286150;28;20059;-74
2021/07/10 13:27:29;;;;;;;1.58;1.00;;;;;;;;;;6277831;28;20131;-75
2021/07/10 13:30:35;;;;;;;1.70;1.20;;;;;;;;;;6283252;28;20055;-75
2021/07/10 13:33:38;;;;;;;1.50;1.10;;;;;;;;;;6290151;28;20044;-73
2021/07/10 13:36:40;;;;;;;3.05;0.98;;;;;;;;;;6293429;28;20551;-73
2021/07/10 13:39:45;;;;;;;2.22;1.00;;;;;;;;;;6286825;28;20101;-71
2021/07/10 13:42:57;;;;;;;2.42;0.90;;;;;;;;;;6285405;28;20053;-71
2021/07/10 13:46:07;;;;;;;2.45;0.95;;;;;;;;;;6281096;28;20041;-73
2021/07/10 13:49:38;;;;;;;1.63;1.02;;;;;;;;;;6281918;28;20408;-76
2021/07/10 13:52:41;;;;;;;1.00;0.90;;;;;;;;;;6277601;28;20226;-73
2021/07/10 13:55:43;;;;;;;2.00;1.00;;;;;;;;;;6281816;28;20133;-74
2021/07/10 13:58:58;;;;;;;2.40;0.90;;;;;;;;;;6288870;28;20577;-74
2021/07/10 14:02:00;;;;;;;1.92;1.13;;;;;;;;;;6275905;28;20043;-76
2021/07/10 14:05:07;;;;;;;1.55;1.00;;;;;;;;;;6287347;28;20556;-76
2021/07/10 14:08:10;;;;;;;1.30;1.20;;;;;;;;;;6281026;28;20078;-74
2021/07/10 14:11:11;;;;;;;1.27;1.17;;;;;;;;;;6282115;28;20106;-72
2021/07/10 14:14:13;;;;;;;2.10;1.00;;;;;;;;;;6288255;28;20049;-73
2021/07/10 14:17:15;;;;;;;1.40;1.10;;;;;;;;;;6274939;28;20044;-73
2021/07/10 14:20:18;;;;;;;1.60;1.00;;;;;;;;;;6281527;28;20123;-74
2021/07/10 14:23:22;;;;;;;1.88;1.10;;;;;;;;;;6279220;28;20826;-72
2021/07/10 14:26:23;;;;;;;2.38;1.00;;;;;;;;;;6278474;28;20093;-74
2021/07/10 14:29:25;;;;;;;2.40;1.10;;;;;;;;;;6284183;28;20418;-73
2021/07/10 14:32:28;;;;;;;1.77;1.10;;;;;;;;;;6268618;28;20056;-74
2021/07/10 14:35:32;;;;;;;1.05;0.90;;;;;;;;;;6276668;28;20048;-74
2021/07/10 14:38:34;;;;;;;2.05;0.90;;;;;;;;;;6281485;28;20041;-72
2021/07/10 14:41:36;;;;;;;2.65;1.00;;;;;;;;;;6280168;28;20110;-75
2021/07/10 14:44:37;;;;;;;2.72;0.93;;;;;;;;;;6287230;28;20546;-73
2021/07/10 14:47:39;;;;;;;1.27;0.95;;;;;;;;;;6273064;28;20869;-73
2021/07/10 14:50:42;;;;;;;1.15;1.00;;;;;;;;;;6275056;28;20139;-73
2021/07/10 14:53:44;;;;;;;3.17;1.00;;;;;;;;;;6283940;28;20395;-73
2021/07/10 14:56:45;;;;;;;2.00;1.20;;;;;;;;;;6276386;28;20568;-73
2021/07/10 14:59:47;;;;;;;2.17;0.80;;;;;;;;;;6285837;28;21087;-77
2021/07/10 15:02:49;;;;;;;0.77;0.77;;;;;;;;;;6275784;28;20122;-74
2021/07/10 15:05:52;;;;;;;2.67;0.82;;;;;;;;;;6282876;28;20466;-73
2021/07/10 15:08:53;;;;;;;2.10;1.08;;;;;;;;;;6288624;28;20051;-74
2021/07/10 15:11:55;;;;;;;1.40;0.93;;;;;;;;;;6283454;28;20405;-76
2021/07/10 15:15:01;;;;;;;1.42;0.88;;;;;;;;;;6286864;28;20044;-75
2021/07/10 15:18:03;;;;;;;2.45;0.80;;;;;;;;;;6277270;28;20052;-76
2021/07/10 15:21:06;;;;;;;2.33;0.90;;;;;;;;;;6278113;28;20040;-76
2021/07/10 15:24:08;;;;;;;1.77;1.15;;;;;;;;;;6286141;28;20601;-75
2021/07/10 15:27:09;;;;;;;2.67;1.00;;;;;;;;;;6281994;28;20052;-76
2021/07/10 15:30:13;;;;;;;2.47;0.87;;;;;;;;;;6293256;28;20099;-79
2021/07/10 15:33:15;;;;;;;2.22;0.90;;;;;;;;;;6286385;28;20046;-76
2021/07/10 15:36:18;;;;;;;2.13;1.13;;;;;;;;;;6278304;28;20385;-76
2021/07/10 15:39:19;;;;;;;2.20;1.10;;;;;;;;;;6289640;28;20438;-75
2021/07/10 15:42:21;;;;;;;3.45;0.80;;;;;;;;;;6283034;28;20054;-76
2021/07/10 15:45:24;;;;;;;3.45;1.08;;;;;;;;;;6291764;28;20056;-79
2021/07/10 15:48:26;;;;;;;1.25;0.98;;;;;;;;;;6279760;28;20503;-75
2021/07/10 15:51:29;;;;;;;2.03;1.10;;;;;;;;;;6287954;28;20187;-73
2021/07/10 15:54:30;;;;;;;3.10;1.20;;;;;;;;;;6297627;28;20041;-80
2021/07/10 15:57:32;;;;;;;1.77;1.00;;;;;;;;;;6283544;28;20127;-75
2021/07/10 16:00:33;;;;;;;3.28;1.17;;;;;;;;;;6283859;28;20210;-78
2021/07/10 16:03:35;;;;;;;2.50;1.08;;;;;;;;;;6288051;28;20527;-75
2021/07/10 16:06:38;;;;;;;2.28;1.15;;;;;;;;;;6287694;28;20048;-75
2021/07/10 16:09:40;;;;;;;2.63;1.08;;;;;;;;;;6289983;28;20399;-74
2021/07/10 16:12:41;;;;;;;1.13;0.90;;;;;;;;;;6283169;28;20182;-73
2021/07/10 16:15:43;;;;;;;4.07;0.93;;;;;;;;;;6282118;28;20044;-79
2021/07/10 16:18:45;;;;;;;1.20;1.00;;;;;;;;;;6285566;28;20221;-73
2021/07/10 16:21:48;;;;;;;2.03;0.88;;;;;;;;;;6279557;28;20050;-71
2021/07/10 16:24:49;;;;;;;3.60;1.10;;;;;;;;;;6281164;28;20132;-75
2021/07/10 16:27:51;;;;;;;2.20;0.98;;;;;;;;;;6283661;28;20044;-73
2021/07/10 16:30:53;;;;;;;2.53;1.13;;;;;;;;;;6279956;28;20691;-73
2021/07/10 16:33:55;;;;;;;1.60;0.93;;;;;;;;;;6284043;28;20518;-74
2021/07/10 16:36:58;;;;;;;3.13;0.90;;;;;;;;;;6283072;28;20062;-73
2021/07/10 16:39:59;;;;;;;1.90;1.10;;;;;;;;;;6293269;28;20178;-74
2021/07/10 16:43:01;;;;;;;2.70;1.20;;;;;;;;;;6285573;28;20051;-73
2021/07/10 16:46:03;;;;;;;1.35;0.88;;;;;;;;;;6280917;28;20731;-77
2021/07/10 16:49:04;;;;;;;1.27;0.90;;;;;;;;;;6287929;28;20824;-72
2021/07/10 16:52:08;;;;;;;2.25;1.00;;;;;;;;;;6280679;28;20200;-75
2021/07/10 16:55:11;;;;;;;2.65;0.95;;;;;;;;;;6289699;28;20079;-73
2021/07/10 16:58:13;;;;;;;1.10;1.00;;;;;;;;;;6286969;28;20036;-73
2021/07/10 17:01:14;;;;;;;4.85;0.98;;;;;;;;;;6283624;28;20041;-74
2021/07/10 17:04:17;;;;;;;2.33;1.00;;;;;;;;;;6293218;28;20598;-71
2021/07/10 17:07:20;;;;;;;1.27;1.10;;;;;;;;;;6285852;28;20052;-73
2021/07/10 17:10:24;;;;;;;1.95;0.90;;;;;;;;;;6291405;28;20063;-78
2021/07/10 17:13:26;;;;;;;3.05;1.20;;;;;;;;;;6290847;28;20109;-72
2021/07/10 17:16:27;;;;;;;3.72;1.58;;;;;;;;;;6281716;28;20090;-73
2021/07/10 17:19:29;;;;;;;3.45;1.17;;;;;;;;;;6293174;28;20135;-72
2021/07/10 17:22:32;;;;;;;2.78;1.10;;;;;;;;;;6280517;28;20040;-73
2021/07/10 17:25:34;;;;;;;1.02;0.80;;;;;;;;;;6285448;28;20101;-77
2021/07/10 17:28:35;;;;;;;1.47;0.93;;;;;;;;;;6292239;28;20213;-71
2021/07/10 17:31:38;;;;;;;2.45;1.10;;;;;;;;;;6280906;28;20131;-72
2021/07/10 17:34:40;;;;;;;1.90;0.85;;;;;;;;;;6290445;28;20459;-71
2021/07/10 17:37:43;;;;;;;2.13;1.00;;;;;;;;;;6286954;28;20192;-72
2021/07/10 17:40:45;;;;;;;1.38;1.13;;;;;;;;;;6287198;28;20048;-72
2021/07/10 17:43:47;;;;;;;3.50;0.98;;;;;;;;;;6293426;28;20266;-73
2021/07/10 17:46:48;;;;;;;1.88;1.20;;;;;;;;;;6287718;28;20134;-72
2021/07/10 17:49:50;;;;;;;3.13;1.20;;;;;;;;;;6291930;28;20132;-73
2021/07/10 17:52:53;;;;;;;5.40;1.30;;;;;;;;;;6282140;28;20179;-72
2021/07/10 17:55:55;;;;;;;2.72;1.00;;;;;;;;;;6295376;28;20044;-72
2021/07/10 17:58:57;;;;;;;2.70;1.10;;;;;;;;;;6298161;28;20044;-75
2021/07/10 18:01:58;;;;;;;1.55;1.10;;;;;;;;;;6290568;28;20048;-72
2021/07/10 18:05:00;;;;;;;2.05;1.10;;;;;;;;;;6295041;28;20102;-73
2021/07/10 18:08:03;;;;;;;1.75;0.95;;;;;;;;;;6296040;28;20052;-72
2021/07/10 18:11:05;;;;;;;2.05;1.20;;;;;;;;;;6288947;28;20507;-73
2021/07/10 18:14:07;;;;;;;3.45;1.20;;;;;;;;;;6299660;28;20139;-73
2021/07/10 18:17:09;;;;;;;1.70;1.17;;;;;;;;;;6290194;28;20052;-73
2021/07/10 18:20:13;;;;;;;1.98;1.10;;;;;;;;;;6295475;28;20059;-73
2021/07/10 18:23:16;;;;;;;2.03;1.10;;;;;;;;;;6295467;28;20127;-73
2021/07/10 18:26:18;;;;;;;3.15;1.10;;;;;;;;;;6295906;28;20073;-74
2021/07/10 18:29:20;;;;;;;2.08;1.10;;;;;;;;;;6295185;28;20080;-72
2021/07/10 18:32:21;;;;;;;1.10;1.00;;;;;;;;;;6284563;28;20071;-71
2021/07/10 18:35:24;;;;;;;2.05;1.30;;;;;;;;;;6293305;28;20131;-78
2021/07/10 18:38:27;;;;;;;1.58;1.20;;;;;;;;;;6294089;28;20055;-75
2021/07/10 18:41:28;;;;;;;5.65;1.40;;;;;;;;;;6293313;28;20066;-72
2021/07/10 18:44:30;;;;;;;1.40;1.10;;;;;;;;;;6304693;28;20048;-73
2021/07/10 18:47:32;;;;;;;4.88;1.50;;;;;;;;;;6286055;28;20068;-72
2021/07/10 18:50:34;;;;;;;2.53;1.40;;;;;;;;;;6290037;28;20072;-73